Time;durP1;ratioP1;P1;durP2;ratioP2;P2;SDS_P1;SDS_P2;PMS_P1;PMS_P2;Temp;Humidity;BMP_temperature;BMP_pressure;BME280_temperature;BME280_humidity;BME280_pressure;Samples;Min_cycle;Max_cycle;Signal;HPM_P1;HPM_P2
2022/06/10 00:00:48;;;;;;;30.77;19.42;;;15.20;99.90;;;;;;5030402;28;20095;-77
2022/06/10 00:03:15;;;;;;;24.83;17.30;;;15.30;99.90;;;;;;5029301;28;20501;-75
2022/06/10 00:05:43;;;;;;;26.90;17.08;;;15.40;99.90;;;;;;5030300;28;20025;-76
2022/06/10 00:08:13;;;;;;;29.33;17.98;;;15.30;99.90;;;;;;5030547;28;20047;-77
2022/06/10 00:10:40;;;;;;;30.27;17.63;;;15.40;99.90;;;;;;5030070;28;20470;-76
2022/06/10 00:13:06;;;;;;;30.60;20.50;;;15.40;99.90;;;;;;5029121;28;20042;-75
2022/06/10 00:15:32;;;;;;;32.95;20.55;;;15.40;99.90;;;;;;5028759;28;20029;-74
2022/06/10 00:17:59;;;;;;;28.92;18.73;;;15.40;99.90;;;;;;5028719;28;20059;-77
2022/06/10 00:20:27;;;;;;;26.45;17.85;;;15.40;99.90;;;;;;5029889;28;20108;-74
2022/06/10 00:22:54;;;;;;;27.73;19.10;;;15.40;99.90;;;;;;5030201;28;20390;-77
2022/06/10 00:25:21;;;;;;;25.90;16.77;;;15.40;99.90;;;;;;5028615;28;20028;-74
2022/06/10 00:27:47;;;;;;;26.20;17.95;;;15.40;99.90;;;;;;5039614;28;20042;-77
2022/06/10 00:30:16;;;;;;;23.80;17.27;;;15.30;99.90;;;;;;5108995;27;20102;-77
2022/06/10 00:32:42;;;;;;;32.08;18.20;;;15.40;99.90;;;;;;5030334;28;20022;-76
2022/06/10 00:35:08;;;;;;;28.80;18.98;;;15.30;99.90;;;;;;5029631;28;20082;-74
2022/06/10 00:37:34;;;;;;;28.73;19.17;;;15.40;99.90;;;;;;5030071;28;20022;-76
2022/06/10 00:39:59;;;;;;;27.33;19.40;;;15.30;99.90;;;;;;5028335;28;20059;-74
2022/06/10 00:42:25;;;;;;;29.25;20.90;;;15.30;99.90;;;;;;5032346;28;20013;-76
2022/06/10 00:44:53;;;;;;;28.42;20.00;;;15.40;99.90;;;;;;5031743;28;20033;-74
2022/06/10 00:47:29;;;;;;;30.50;18.88;;;15.40;99.90;;;;;;5033613;28;20026;-77
2022/06/10 00:50:20;;;;;;;30.67;19.65;;;15.40;99.90;;;;;;5033134;28;20018;-74
2022/06/10 00:52:55;;;;;;;27.85;18.77;;;15.40;99.90;;;;;;5033506;28;20047;-76
2022/06/10 00:55:28;;;;;;;28.17;18.63;;;15.30;99.90;;;;;;5031916;28;20018;-76
2022/06/10 00:58:00;;;;;;;27.00;17.70;;;15.30;99.90;;;;;;5033246;28;20074;-74
2022/06/10 01:00:26;;;;;;;29.15;20.05;;;15.30;99.90;;;;;;5032945;28;20061;-74
2022/06/10 01:02:52;;;;;;;27.60;19.63;;;15.30;99.90;;;;;;5031929;28;20021;-74
2022/06/10 01:05:23;;;;;;;25.85;17.98;;;15.30;99.90;;;;;;5032928;28;20075;-76
2022/06/10 01:07:53;;;;;;;29.60;20.02;;;15.20;99.90;;;;;;5032018;28;20433;-77
2022/06/10 01:10:19;;;;;;;23.48;16.35;;;15.20;99.90;;;;;;5031601;28;20020;-77
2022/06/10 01:13:10;;;;;;;28.27;18.33;;;15.30;99.90;;;;;;5031974;28;20074;-75
2022/06/10 01:15:56;;;;;;;23.98;17.25;;;15.30;99.90;;;;;;5032713;28;20074;-77
2022/06/10 01:18:38;;;;;;;25.20;18.10;;;15.20;99.90;;;;;;5031775;28;20466;-74
2022/06/10 01:21:14;;;;;;;27.93;18.17;;;15.30;99.90;;;;;;5031379;28;20041;-77
2022/06/10 01:24:01;;;;;;;27.63;18.25;;;15.20;99.90;;;;;;5031685;28;20030;-74
2022/06/10 01:30:19;;;;;;;26.33;19.25;;;15.10;99.90;;;;;;5124121;27;20123;-74
2022/06/10 01:33:11;;;;;;;27.15;17.55;;;15.00;99.90;;;;;;5032983;28;20067;-74
2022/06/10 01:35:56;;;;;;;27.38;16.90;;;14.90;99.90;;;;;;5032372;28;20497;-74
2022/06/10 01:38:38;;;;;;;25.92;17.60;;;14.90;99.90;;;;;;5031546;28;20026;-77
2022/06/10 01:41:09;;;;;;;30.02;19.38;;;14.90;99.90;;;;;;5032360;28;20148;-74
2022/06/10 01:43:47;;;;;;;27.05;17.48;;;14.90;99.90;;;;;;5031298;28;20095;-75
2022/06/10 01:46:24;;;;;;;28.50;17.08;;;14.90;99.90;;;;;;5032328;28;20108;-74
2022/06/10 01:49:19;;;;;;;24.23;16.38;;;14.90;99.90;;;;;;5032676;28;20018;-74
2022/06/10 01:52:16;;;;;;;24.17;16.50;;;14.90;99.90;;;;;;5030508;28;20022;-74
2022/06/10 01:54:55;;;;;;;23.90;16.25;;;14.90;99.90;;;;;;5024131;28;20475;-74
2022/06/10 01:57:36;;;;;;;25.38;17.23;;;14.90;99.90;;;;;;5032569;28;20022;-74
2022/06/10 02:00:10;;;;;;;24.85;17.30;;;15.00;99.90;;;;;;5031916;28;20071;-76
2022/06/10 02:02:41;;;;;;;23.55;15.73;;;15.00;99.90;;;;;;5031238;28;20022;-77
2022/06/10 02:05:16;;;;;;;30.20;18.20;;;15.00;99.90;;;;;;5030528;28;20010;-74
2022/06/10 02:08:02;;;;;;;26.45;17.60;;;15.00;99.90;;;;;;5031071;28;20116;-77
2022/06/10 02:10:50;;;;;;;27.13;18.40;;;15.00;99.90;;;;;;5031821;28;20067;-77
2022/06/10 02:13:25;;;;;;;32.45;17.98;;;14.90;99.90;;;;;;5032567;28;20021;-74
2022/06/10 02:15:56;;;;;;;31.15;18.20;;;14.80;99.90;;;;;;5031661;28;20057;-76
2022/06/10 02:18:34;;;;;;;24.23;16.52;;;14.70;99.90;;;;;;5032218;28;20096;-77
2022/06/10 02:21:14;;;;;;;30.40;18.52;;;14.70;99.90;;;;;;5030307;28;20029;-74
2022/06/10 02:23:44;;;;;;;24.10;16.50;;;14.70;99.90;;;;;;5032095;28;20025;-76
2022/06/10 02:26:10;;;;;;;26.15;16.65;;;14.70;99.90;;;;;;5031756;28;20030;-77
2022/06/10 02:28:53;;;;;;;26.77;17.08;;;14.70;99.90;;;;;;5080324;27;20027;-77
2022/06/10 02:31:44;;;;;;;29.75;18.67;;;14.70;99.90;;;;;;5062947;27;20021;-75
2022/06/10 02:34:10;;;;;;;29.25;18.02;;;14.70;99.90;;;;;;5020045;28;20506;-76
2022/06/10 02:36:44;;;;;;;29.55;17.95;;;14.80;99.90;;;;;;5030232;28;20017;-77
2022/06/10 02:39:25;;;;;;;26.48;17.00;;;14.80;99.90;;;;;;5031712;28;20048;-74
2022/06/10 02:42:03;;;;;;;25.92;16.75;;;14.80;99.90;;;;;;5030032;28;20026;-74
2022/06/10 02:44:51;;;;;;;32.33;20.10;;;14.70;99.90;;;;;;5030478;28;20022;-77
2022/06/10 02:47:31;;;;;;;26.42;17.77;;;14.70;99.90;;;;;;5031823;28;20017;-76
2022/06/10 02:49:57;;;;;;;26.90;17.55;;;14.70;99.90;;;;;;5031224;28;20022;-74
2022/06/10 02:52:27;;;;;;;27.00;17.02;;;14.70;99.90;;;;;;5031632;28;20108;-75
2022/06/10 02:54:52;;;;;;;30.80;19.85;;;14.70;99.90;;;;;;5031069;28;20068;-74
2022/06/10 03:01:11;;;;;;;31.58;16.98;;;14.70;99.90;;;;;;5031608;28;20049;-77
2022/06/10 03:03:23;;;;;;;22.92;15.88;;;14.80;99.90;;;;;;5031016;28;20041;-77
2022/06/10 03:06:05;;;;;;;22.70;15.13;;;14.80;99.90;;;;;;5029215;28;20490;-77
2022/06/10 03:08:45;;;;;;;27.42;17.42;;;14.80;99.90;;;;;;5031582;28;20043;-74
2022/06/10 03:11:55;;;;;;;29.88;16.95;;;14.90;99.90;;;;;;5029588;28;20467;-74
2022/06/10 03:14:27;;;;;;;34.15;19.27;;;14.90;99.90;;;;;;5042424;27;20053;-76
2022/06/10 03:17:17;;;;;;;31.05;18.60;;;14.90;99.90;;;;;;5038834;27;20430;-77
2022/06/10 03:19:52;;;;;;;27.40;17.25;;;15.00;99.90;;;;;;5030600;28;20037;-74
2022/06/10 03:22:28;;;;;;;31.08;17.20;;;15.00;99.90;;;;;;5031174;28;20037;-74
2022/06/10 03:25:16;;;;;;;29.25;18.23;;;15.00;99.90;;;;;;5029559;28;20033;-76
2022/06/10 03:28:06;;;;;;;32.08;18.55;;;14.90;99.90;;;;;;5042320;27;20067;-78
2022/06/10 03:30:37;;;;;;;30.23;18.77;;;14.90;99.90;;;;;;5096103;27;20076;-77
2022/06/10 03:33:22;;;;;;;34.10;18.77;;;14.90;99.90;;;;;;5031139;28;20018;-77
2022/06/10 03:35:53;;;;;;;30.20;18.42;;;14.90;99.90;;;;;;5030372;28;20113;-74
2022/06/10 03:38:19;;;;;;;26.98;16.67;;;14.90;99.90;;;;;;5031008;28;20131;-74
2022/06/10 03:40:56;;;;;;;24.98;15.55;;;14.90;99.90;;;;;;5029059;28;20074;-75
2022/06/10 03:43:24;;;;;;;28.05;16.38;;;14.80;99.90;;;;;;5029702;28;20045;-77
2022/06/10 03:45:59;;;;;;;29.52;17.45;;;14.90;99.90;;;;;;5030282;28;20025;-77
2022/06/10 03:48:27;;;;;;;29.48;17.95;;;14.90;99.90;;;;;;5029661;28;20017;-74
2022/06/10 03:50:55;;;;;;;27.45;17.65;;;14.90;99.90;;;;;;5030237;28;20021;-74
2022/06/10 03:53:23;;;;;;;27.73;17.35;;;14.90;99.90;;;;;;5030768;28;20060;-74
2022/06/10 03:55:49;;;;;;;31.05;18.38;;;14.90;99.90;;;;;;5030205;28;20575;-74
2022/06/10 03:58:15;;;;;;;34.22;20.38;;;14.90;99.90;;;;;;5029378;28;20025;-74
2022/06/10 04:00:42;;;;;;;32.20;17.95;;;15.10;99.90;;;;;;5028724;28;20026;-77
2022/06/10 04:03:07;;;;;;;33.78;20.00;;;15.10;99.90;;;;;;5029399;28;20030;-74
2022/06/10 04:05:33;;;;;;;31.73;17.30;;;15.10;99.90;;;;;;5030107;28;20101;-76
2022/06/10 04:07:59;;;;;;;32.35;18.48;;;15.10;99.90;;;;;;5030609;28;20493;-75
2022/06/10 04:10:28;;;;;;;34.17;18.45;;;15.20;99.90;;;;;;5029923;28;20489;-77
2022/06/10 04:12:54;;;;;;;28.65;17.80;;;15.30;99.90;;;;;;5030539;28;20122;-73
2022/06/10 04:15:20;;;;;;;34.10;17.45;;;15.30;99.90;;;;;;5028399;28;20033;-77
2022/06/10 04:17:49;;;;;;;29.83;18.60;;;15.30;99.90;;;;;;5030490;28;20025;-76
2022/06/10 04:20:19;;;;;;;28.17;17.52;;;15.40;99.90;;;;;;5029688;28;20034;-74
2022/06/10 04:22:46;;;;;;;27.17;16.48;;;15.40;99.90;;;;;;5030707;28;20072;-74
2022/06/10 04:25:12;;;;;;;30.20;18.20;;;15.40;99.90;;;;;;5028615;28;20032;-74
2022/06/10 04:27:38;;;;;;;30.95;18.17;;;15.40;99.90;;;;;;5039559;28;20021;-74
2022/06/10 04:30:06;;;;;;;36.40;19.05;;;15.40;99.90;;;;;;5114847;28;20058;-77
2022/06/10 04:32:32;;;;;;;30.20;18.63;;;15.40;99.90;;;;;;5028795;28;20104;-74
2022/06/10 04:34:57;;;;;;;30.60;18.35;;;15.40;99.90;;;;;;5029829;28;20060;-74
2022/06/10 04:37:24;;;;;;;34.20;18.90;;;15.50;99.90;;;;;;5030140;28;20474;-77
2022/06/10 04:39:50;;;;;;;39.20;19.95;;;15.40;99.90;;;;;;5028406;28;20037;-77
2022/06/10 04:42:15;;;;;;;36.25;19.52;;;15.50;99.90;;;;;;5029715;28;20077;-76
2022/06/10 04:44:41;;;;;;;43.95;21.10;;;15.50;99.90;;;;;;5029605;28;20040;-74
2022/06/10 04:47:07;;;;;;;34.55;19.70;;;15.50;99.90;;;;;;5029925;28;20052;-74
2022/06/10 04:49:35;;;;;;;32.83;18.83;;;15.50;99.90;;;;;;5028596;28;20025;-77
2022/06/10 04:52:01;;;;;;;32.60;19.42;;;15.60;99.90;;;;;;5028019;28;20047;-74
2022/06/10 04:54:27;;;;;;;33.60;19.67;;;15.60;99.90;;;;;;5028537;28;20022;-74
2022/06/10 04:56:52;;;;;;;34.30;19.33;;;15.50;99.90;;;;;;5027913;28;20044;-74
2022/06/10 04:59:18;;;;;;;36.13;20.65;;;15.50;99.90;;;;;;5029716;28;20133;-74
2022/06/10 05:01:44;;;;;;;40.20;22.48;;;15.50;99.90;;;;;;5028144;28;20428;-76
2022/06/10 05:04:09;;;;;;;33.90;19.65;;;15.60;99.90;;;;;;5036099;28;20037;-74
2022/06/10 05:06:35;;;;;;;32.15;20.10;;;15.60;99.90;;;;;;5028418;28;20474;-75
2022/06/10 05:09:00;;;;;;;39.88;21.33;;;15.60;99.90;;;;;;5028498;28;20367;-74
2022/06/10 05:11:26;;;;;;;37.80;21.05;;;15.60;99.90;;;;;;5029157;28;20029;-75
2022/06/10 05:13:52;;;;;;;34.38;20.42;;;15.50;99.90;;;;;;5029714;28;20424;-77
2022/06/10 05:16:17;;;;;;;33.88;21.50;;;15.60;99.90;;;;;;5030075;28;20034;-74
2022/06/10 05:18:43;;;;;;;40.65;24.27;;;15.60;99.90;;;;;;5029564;28;20041;-74
2022/06/10 05:21:10;;;;;;;36.15;20.83;;;15.60;99.90;;;;;;5028972;28;20033;-77
2022/06/10 05:23:35;;;;;;;43.47;25.20;;;15.60;99.90;;;;;;5028425;28;20108;-77
2022/06/10 05:26:02;;;;;;;36.67;21.90;;;15.60;99.90;;;;;;5026809;28;20112;-77
2022/06/10 05:28:27;;;;;;;39.60;21.80;;;15.60;99.90;;;;;;5032617;28;20018;-77
2022/06/10 05:30:53;;;;;;;39.17;23.27;;;15.70;99.90;;;;;;5060257;27;20069;-77
2022/06/10 05:33:19;;;;;;;34.35;21.95;;;15.70;99.90;;;;;;5031275;28;20053;-77
2022/06/10 05:35:46;;;;;;;43.67;25.05;;;15.60;99.90;;;;;;5031230;28;20474;-80
2022/06/10 05:38:12;;;;;;;39.83;23.42;;;15.70;99.90;;;;;;5044259;27;20022;-77
2022/06/10 05:40:38;;;;;;;38.38;24.70;;;15.70;99.90;;;;;;5107725;27;20114;-77
2022/06/10 05:43:04;;;;;;;33.35;22.38;;;15.80;99.90;;;;;;5031854;27;20105;-75
2022/06/10 05:45:30;;;;;;;36.75;23.05;;;15.80;99.90;;;;;;5054417;27;20124;-74
2022/06/10 05:48:00;;;;;;;36.38;22.77;;;15.80;99.90;;;;;;5029660;28;20461;-75
2022/06/10 05:50:40;;;;;;;34.00;21.85;;;15.90;99.90;;;;;;5043704;27;20515;-74
2022/06/10 05:53:10;;;;;;;37.60;23.10;;;15.90;99.90;;;;;;5029376;28;20026;-74
2022/06/10 05:55:37;;;;;;;40.75;24.58;;;16.00;99.90;;;;;;5029270;28;20082;-74
2022/06/10 05:58:03;;;;;;;36.00;23.45;;;16.00;99.90;;;;;;5029658;28;20037;-75
2022/06/10 06:00:30;;;;;;;37.72;21.42;;;16.10;99.90;;;;;;5030583;28;20071;-74
2022/06/10 06:02:58;;;;;;;40.78;24.30;;;16.10;99.90;;;;;;5044461;27;20376;-78
2022/06/10 06:05:24;;;;;;;46.03;24.70;;;16.10;99.90;;;;;;5062179;27;20488;-77
2022/06/10 06:07:51;;;;;;;36.78;24.35;;;16.20;99.90;;;;;;5126572;27;20476;-76
2022/06/10 06:10:22;;;;;;;37.00;23.85;;;16.20;99.90;;;;;;5107114;27;20112;-75
2022/06/10 06:12:48;;;;;;;37.80;24.10;;;16.20;99.90;;;;;;5032024;28;20418;-74
2022/06/10 06:15:14;;;;;;;43.80;23.40;;;16.20;99.90;;;;;;5029729;28;20025;-74
2022/06/10 06:17:40;;;;;;;38.45;24.42;;;16.20;99.90;;;;;;5031721;28;20508;-76
2022/06/10 06:20:07;;;;;;;39.42;25.50;;;16.20;99.90;;;;;;5030496;28;20037;-76
2022/06/10 06:22:33;;;;;;;44.20;25.02;;;16.20;99.90;;;;;;5032280;28;20491;-74
2022/06/10 06:24:59;;;;;;;42.58;27.85;;;16.20;99.90;;;;;;5030493;28;20049;-76
2022/06/10 06:27:24;;;;;;;42.85;27.50;;;16.20;99.90;;;;;;5034384;28;20055;-75
2022/06/10 06:29:50;;;;;;;45.42;26.92;;;16.20;99.90;;;;;;5126619;27;20051;-74
2022/06/10 06:32:16;;;;;;;49.83;26.77;;;16.20;99.90;;;;;;5032156;28;20022;-75
2022/06/10 06:34:42;;;;;;;45.78;27.40;;;16.20;99.90;;;;;;5031751;28;20026;-74
2022/06/10 06:37:13;;;;;;;44.63;27.77;;;16.20;99.90;;;;;;5032233;28;20026;-75
2022/06/10 06:39:40;;;;;;;44.63;27.98;;;16.20;99.90;;;;;;5031643;28;20025;-74
2022/06/10 06:42:06;;;;;;;50.55;30.08;;;16.20;99.90;;;;;;5032105;28;20063;-77
2022/06/10 06:44:31;;;;;;;52.20;29.85;;;16.20;99.90;;;;;;5030178;28;20029;-77
2022/06/10 06:46:57;;;;;;;52.28;30.75;;;16.20;99.90;;;;;;5030788;28;20021;-76
2022/06/10 06:49:26;;;;;;;44.08;27.95;;;16.20;99.90;;;;;;5031805;28;20033;-74
2022/06/10 06:51:54;;;;;;;49.92;30.73;;;16.20;99.90;;;;;;5031367;28;20543;-75
2022/06/10 06:54:19;;;;;;;46.60;29.20;;;16.20;99.90;;;;;;5031814;28;20025;-74
2022/06/10 06:56:46;;;;;;;48.55;30.17;;;16.20;99.90;;;;;;5030165;28;20588;-77
2022/06/10 06:59:12;;;;;;;49.85;29.00;;;16.20;99.90;;;;;;5030344;28;20514;-77
2022/06/10 07:01:38;;;;;;;45.40;28.77;;;16.30;99.90;;;;;;5031318;28;20029;-76
2022/06/10 07:04:05;;;;;;;41.90;26.52;;;16.30;99.90;;;;;;5030310;28;20025;-76
2022/06/10 07:06:34;;;;;;;47.60;29.65;;;16.30;99.90;;;;;;5031208;28;20060;-77
2022/06/10 07:09:00;;;;;;;42.88;28.05;;;16.40;99.90;;;;;;5030270;28;20021;-76
2022/06/10 07:11:26;;;;;;;43.53;27.92;;;16.40;99.90;;;;;;5029897;28;20029;-77
2022/06/10 07:13:52;;;;;;;42.60;27.98;;;16.50;99.90;;;;;;5030245;28;20048;-75
2022/06/10 07:16:18;;;;;;;38.95;27.00;;;16.50;99.90;;;;;;5029862;28;20067;-77
2022/06/10 07:18:44;;;;;;;38.38;26.80;;;16.40;99.90;;;;;;5030153;28;20405;-78
2022/06/10 07:21:09;;;;;;;37.20;24.08;;;16.50;99.90;;;;;;5029775;28;20065;-74
2022/06/10 07:23:35;;;;;;;37.05;24.27;;;16.40;99.90;;;;;;5030055;28;20026;-78
2022/06/10 07:26:03;;;;;;;30.27;20.38;;;16.50;99.90;;;;;;5030985;28;20026;-77
2022/06/10 07:28:30;;;;;;;33.08;21.88;;;16.50;99.90;;;;;;5081282;27;20019;-78
2022/06/10 07:30:55;;;;;;;30.70;22.45;;;16.40;99.90;;;;;;5079763;27;20026;-74
2022/06/10 07:33:21;;;;;;;28.58;20.55;;;16.40;99.90;;;;;;5030689;28;20021;-75
2022/06/10 07:35:47;;;;;;;31.58;22.15;;;16.30;99.90;;;;;;5029330;28;20120;-75
2022/06/10 07:38:13;;;;;;;27.33;19.40;;;16.30;99.90;;;;;;5076799;27;20021;-78
2022/06/10 07:43:27;;;;;;;26.52;20.40;;;16.40;99.90;;;;;;5047215;27;20044;-74
2022/06/10 07:45:53;;;;;;;28.45;19.77;;;16.30;99.90;;;;;;5087531;27;20019;-78
2022/06/10 07:48:19;;;;;;;27.17;19.95;;;16.40;99.90;;;;;;5077475;27;20021;-75
2022/06/10 07:50:46;;;;;;;29.23;19.40;;;16.40;99.90;;;;;;5063483;27;20026;-78
2022/06/10 07:53:13;;;;;;;25.65;19.85;;;16.40;99.90;;;;;;5011133;28;20029;-78
2022/06/10 07:55:39;;;;;;;24.98;19.10;;;16.50;99.90;;;;;;5018670;28;20029;-78
2022/06/10 07:58:06;;;;;;;27.05;19.65;;;16.50;99.90;;;;;;5030863;28;20024;-78
2022/06/10 08:00:34;;;;;;;28.33;18.70;;;16.60;99.90;;;;;;5030185;28;20045;-78
2022/06/10 08:03:00;;;;;;;23.55;18.15;;;16.60;99.90;;;;;;5030836;28;20025;-79
2022/06/10 08:05:25;;;;;;;27.15;19.45;;;16.60;99.90;;;;;;5030247;28;20021;-79
2022/06/10 08:07:51;;;;;;;26.02;18.02;;;16.70;99.90;;;;;;5030707;28;20030;-75
2022/06/10 08:10:22;;;;;;;28.08;21.58;;;16.70;99.90;;;;;;5030950;28;20018;-75
2022/06/10 08:12:48;;;;;;;26.60;19.70;;;16.70;99.90;;;;;;5076091;27;20136;-78
2022/06/10 08:15:15;;;;;;;26.40;20.98;;;16.70;99.90;;;;;;5081246;27;20051;-75
2022/06/10 08:17:41;;;;;;;29.25;21.10;;;16.70;99.90;;;;;;5073111;27;20029;-76
2022/06/10 08:20:08;;;;;;;28.70;19.27;;;16.60;99.90;;;;;;5029852;28;20036;-79
2022/06/10 08:22:35;;;;;;;26.52;18.63;;;16.70;99.90;;;;;;5098616;28;20072;-76
2022/06/10 08:25:04;;;;;;;28.45;21.42;;;16.70;99.90;;;;;;5113864;28;20032;-76
2022/06/10 08:27:29;;;;;;;29.13;20.92;;;16.80;99.90;;;;;;5040927;28;20021;-79
2022/06/10 08:29:56;;;;;;;28.70;21.17;;;16.80;99.90;;;;;;5122146;28;20112;-80
2022/06/10 08:32:23;;;;;;;31.63;22.05;;;16.80;99.90;;;;;;5086438;28;20029;-76
2022/06/10 08:34:50;;;;;;;32.60;23.17;;;16.70;99.90;;;;;;5057512;28;20051;-79
2022/06/10 08:37:16;;;;;;;28.40;20.98;;;16.70;99.90;;;;;;5094298;27;20450;-78
2022/06/10 08:39:42;;;;;;;32.83;24.05;;;16.70;99.90;;;;;;5131419;27;20031;-79
2022/06/10 08:42:26;;;;;;;34.90;25.52;;;16.60;99.90;;;;;;5030383;28;20374;-78
2022/06/10 08:44:53;;;;;;;38.78;24.73;;;16.60;99.90;;;;;;5023884;27;20014;-79
2022/06/10 08:47:45;;;;;;;37.78;25.80;;;16.50;99.90;;;;;;5113833;27;20104;-75
2022/06/10 08:50:20;;;;;;;38.45;26.65;;;16.50;99.90;;;;;;5052000;28;20539;-77
2022/06/10 08:53:33;;;;;;;43.08;26.38;;;16.60;99.90;;;;;;5109935;28;20023;-78
2022/06/10 08:56:05;;;;;;;38.20;25.63;;;16.80;99.90;;;;;;4989552;28;20518;-78
2022/06/10 08:58:56;;;;;;;32.65;23.30;;;17.00;99.90;;;;;;5013171;28;20595;-74
2022/06/10 09:01:23;;;;;;;39.45;26.90;;;17.10;99.90;;;;;;5045407;27;20035;-75
2022/06/10 09:04:04;;;;;;;34.85;25.05;;;17.20;99.90;;;;;;5136973;27;20387;-78
2022/06/10 09:06:53;;;;;;;38.10;24.58;;;17.40;99.90;;;;;;5054365;27;20083;-78
2022/06/10 09:09:22;;;;;;;31.35;23.58;;;17.40;99.90;;;;;;5136683;27;20508;-78
2022/06/10 09:11:58;;;;;;;28.15;21.27;;;17.50;99.90;;;;;;5072077;27;20046;-78
2022/06/10 09:14:27;;;;;;;27.38;21.52;;;17.50;99.90;;;;;;5127893;27;20034;-75
2022/06/10 09:17:02;;;;;;;28.58;21.27;;;17.40;99.90;;;;;;5072108;27;20029;-74
2022/06/10 09:19:58;;;;;;;27.73;22.80;;;17.40;99.90;;;;;;5059895;27;20548;-75
2022/06/10 09:22:33;;;;;;;29.00;21.52;;;17.40;99.90;;;;;;5135082;27;20122;-75
2022/06/10 09:25:23;;;;;;;27.05;20.95;;;17.30;99.90;;;;;;5136263;27;20031;-76
2022/06/10 09:27:53;;;;;;;29.35;22.45;;;17.20;99.90;;;;;;5038830;27;20562;-75
2022/06/10 09:30:21;;;;;;;30.95;22.42;;;17.20;99.90;;;;;;5095402;27;20064;-78
2022/06/10 09:32:50;;;;;;;30.98;23.75;;;17.20;99.90;;;;;;5131997;27;20051;-74
2022/06/10 09:35:51;;;;;;;28.70;22.02;;;17.20;99.90;;;;;;5136002;27;20488;-75
2022/06/10 09:38:17;;;;;;;29.23;22.70;;;17.10;99.90;;;;;;5076078;27;20041;-74
2022/06/10 09:41:01;;;;;;;29.45;22.25;;;17.20;99.90;;;;;;5127350;27;20377;-79
2022/06/10 09:43:43;;;;;;;30.02;22.90;;;17.40;99.90;;;;;;5085386;27;20039;-74
2022/06/10 09:46:10;;;;;;;;;;;17.40;99.90;;;;;;5060758;27;20361;-75
2022/06/10 09:48:41;;;;;;;33.00;24.20;;;17.40;99.90;;;;;;5135890;27;19904;-79
2022/06/10 09:51:28;;;;;;;35.28;26.75;;;17.30;99.90;;;;;;5134870;27;20476;-75
2022/06/10 09:54:15;;;;;;;38.40;25.48;;;17.30;99.90;;;;;;5066913;27;20136;-74
2022/06/10 09:56:59;;;;;;;40.30;27.20;;;17.40;99.90;;;;;;5135406;27;20027;-74
2022/06/10 09:59:43;;;;;;;37.08;26.73;;;17.50;99.90;;;;;;5135700;27;20051;-74
2022/06/10 10:02:21;;;;;;;31.73;24.05;;;17.50;99.90;;;;;;5135505;27;20035;-74
2022/06/10 10:05:01;;;;;;;38.10;27.65;;;17.50;99.90;;;;;;5136188;27;20030;-80
2022/06/10 10:08:17;;;;;;;40.85;29.70;;;17.40;99.90;;;;;;5134166;27;20035;-80
2022/06/10 10:11:10;;;;;;;43.95;29.42;;;17.20;99.90;;;;;;5061956;28;20541;-74
2022/06/10 10:13:56;;;;;;;49.67;30.30;;;17.30;99.90;;;;;;5129831;27;20354;-79
2022/06/10 10:16:40;;;;;;;46.55;31.85;;;17.20;99.90;;;;;;5133987;27;20031;-74
2022/06/10 10:19:39;;;;;;;50.30;33.13;;;17.20;99.90;;;;;;5135493;27;20357;-74
2022/06/10 10:22:44;;;;;;;50.97;32.88;;;17.10;99.90;;;;;;5064250;27;20067;-75
2022/06/10 10:25:22;;;;;;;45.13;30.90;;;17.10;99.90;;;;;;5116432;27;20369;-79
2022/06/10 10:27:49;;;;;;;57.38;32.30;;;17.20;99.90;;;;;;5106289;27;20041;-74
2022/06/10 10:30:20;;;;;;;47.38;32.35;;;17.20;99.90;;;;;;5086971;27;20811;-79
2022/06/10 10:33:00;;;;;;;49.15;32.28;;;17.10;99.90;;;;;;5134737;27;20031;-74
2022/06/10 10:35:33;;;;;;;47.92;33.92;;;17.20;99.90;;;;;;5133775;27;20023;-80
2022/06/10 10:38:02;;;;;;;46.40;32.03;;;17.30;99.90;;;;;;5089426;27;20669;-75
2022/06/10 10:40:37;;;;;;;47.08;30.83;;;17.30;99.90;;;;;;5092010;27;20114;-75
2022/06/10 10:43:10;;;;;;;43.15;31.67;;;17.40;99.90;;;;;;5091212;27;20039;-80
2022/06/10 10:45:37;;;;;;;42.90;29.23;;;17.50;99.90;;;;;;5099342;27;20023;-79
2022/06/10 10:48:30;;;;;;;38.00;27.83;;;17.70;99.90;;;;;;5087542;27;20037;-74
2022/06/10 10:51:20;;;;;;;30.13;24.38;;;17.70;99.90;;;;;;5102239;27;20019;-79
2022/06/10 10:53:56;;;;;;;37.03;24.45;;;17.60;99.90;;;;;;5100136;27;20488;-80
2022/06/10 10:56:37;;;;;;;33.28;24.80;;;17.60;99.90;;;;;;5088342;27;20093;-80
2022/06/10 10:59:03;;;;;;;33.78;25.55;;;17.70;99.90;;;;;;5088604;27;20052;-80
2022/06/10 11:01:44;;;;;;;31.98;24.23;;;17.80;99.90;;;;;;5120617;27;20023;-80
2022/06/10 11:04:11;;;;;;;28.83;21.95;;;17.80;99.90;;;;;;5134231;27;20043;-80
2022/06/10 11:06:37;;;;;;;26.17;22.15;;;17.90;99.90;;;;;;5134024;27;20016;-80
2022/06/10 11:09:12;;;;;;;23.30;20.10;;;17.80;99.90;;;;;;5117224;27;20057;-80
2022/06/10 11:11:40;;;;;;;26.80;21.00;;;17.80;99.90;;;;;;5084774;27;20470;-80
2022/06/10 11:14:31;;;;;;;32.00;22.25;;;17.90;99.90;;;;;;5096642;27;20489;-74
2022/06/10 11:17:17;;;;;;;31.55;23.25;;;18.00;99.90;;;;;;5087298;27;20061;-79
2022/06/10 11:19:50;;;;;;;25.67;22.58;;;18.00;99.90;;;;;;5095903;27;20480;-75
2022/06/10 11:22:23;;;;;;;23.63;17.70;;;18.00;99.90;;;;;;5110372;27;20107;-74
2022/06/10 11:24:53;;;;;;;28.70;20.27;;;17.90;99.90;;;;;;5028817;28;20045;-80
2022/06/10 11:27:40;;;;;;;27.58;21.65;;;17.90;99.90;;;;;;5038772;27;20021;-74
2022/06/10 11:30:12;;;;;;;33.53;25.77;;;17.90;99.90;;;;;;5134673;27;20043;-79
2022/06/10 11:32:39;;;;;;;24.20;20.38;;;18.00;99.90;;;;;;5133627;27;20545;-80
2022/06/10 11:35:27;;;;;;;26.20;21.70;;;18.00;99.90;;;;;;5134652;27;20027;-80
2022/06/10 11:37:58;;;;;;;26.38;21.13;;;18.10;99.90;;;;;;5134455;27;20102;-75
2022/06/10 11:40:46;;;;;;;23.42;19.70;;;18.30;99.90;;;;;;5133270;27;20559;-79
2022/06/10 11:43:50;;;;;;;23.38;19.77;;;18.40;99.90;;;;;;5121828;27;20035;-80
2022/06/10 11:46:24;;;;;;;20.38;16.42;;;18.40;99.90;;;;;;5051068;28;20036;-75
2022/06/10 11:49:24;;;;;;;21.80;18.00;;;18.30;99.90;;;;;;5123046;27;20032;-79
2022/06/10 11:52:05;;;;;;;21.52;17.50;;;18.40;99.90;;;;;;5119172;27;20024;-79
2022/06/10 11:54:39;;;;;;;23.05;15.93;;;18.70;99.90;;;;;;5134585;27;20051;-79
2022/06/10 12:00:00;;;;;;;16.65;15.02;;;19.10;99.90;;;;;;5134393;27;20050;-75
2022/06/10 12:02:34;;;;;;;16.30;14.30;;;19.40;99.90;;;;;;5134830;27;20027;-75
2022/06/10 12:05:33;;;;;;;16.10;13.95;;;19.40;99.90;;;;;;5134658;27;20027;-79
2022/06/10 12:08:31;;;;;;;14.80;12.77;;;19.40;99.90;;;;;;5134421;27;20051;-78
2022/06/10 12:11:20;;;;;;;14.95;12.70;;;19.20;99.90;;;;;;5134491;27;20027;-78
2022/06/10 12:14:04;;;;;;;15.70;13.30;;;19.20;99.90;;;;;;5134713;27;20019;-75
2022/06/10 12:16:30;;;;;;;17.08;12.70;;;19.00;99.90;;;;;;5134657;27;20019;-75
2022/06/10 12:18:58;;;;;;;16.48;12.98;;;18.90;99.90;;;;;;5134155;27;20038;-79
2022/06/10 12:21:26;;;;;;;13.25;11.88;;;19.00;99.90;;;;;;5133010;27;20027;-75
2022/06/10 12:23:52;;;;;;;15.80;12.15;;;19.00;99.90;;;;;;5134059;27;20020;-79
2022/06/10 12:26:29;;;;;;;11.48;9.70;;;19.30;99.90;;;;;;5133026;28;20028;-79
2022/06/10 12:29:10;;;;;;;10.15;9.15;;;19.50;99.90;;;;;;5055340;28;20054;-75
2022/06/10 12:32:03;;;;;;;11.07;8.90;;;19.90;99.90;;;;;;5030395;28;20467;-75
2022/06/10 12:34:35;;;;;;;9.95;7.97;;;19.90;99.90;;;;;;5030290;28;20387;-75
2022/06/10 12:37:05;;;;;;;8.85;8.05;;;19.90;99.90;;;;;;5033283;28;20053;-78
2022/06/10 12:39:52;;;;;;;8.45;7.65;;;19.80;99.90;;;;;;5033553;28;20033;-78
2022/06/10 12:42:36;;;;;;;7.68;6.72;;;20.00;99.90;;;;;;5033700;28;20021;-78
2022/06/10 12:45:05;;;;;;;8.07;7.32;;;20.10;99.90;;;;;;5033772;28;20047;-78
2022/06/10 12:47:38;;;;;;;8.40;7.47;;;19.90;99.90;;;;;;5032424;28;20018;-78
2022/06/10 12:50:19;;;;;;;7.57;6.97;;;19.90;99.90;;;;;;5032372;28;20045;-78
2022/06/10 12:52:50;;;;;;;9.05;8.15;;;20.00;99.90;;;;;;5033791;28;20501;-78
2022/06/10 12:55:17;;;;;;;11.77;7.65;;;20.00;99.90;;;;;;5033650;28;20036;-78
2022/06/10 12:57:44;;;;;;;8.18;6.88;;;20.00;99.90;;;;;;5033413;28;20032;-75
2022/06/10 13:00:26;;;;;;;8.52;7.65;;;19.90;99.90;;;;;;5033240;28;20398;-78
2022/06/10 13:02:53;;;;;;;7.75;6.95;;;19.90;99.90;;;;;;5032210;28;20044;-75
2022/06/10 13:05:41;;;;;;;7.47;6.63;;;19.90;99.90;;;;;;5032106;28;20423;-75
2022/06/10 13:08:37;;;;;;;7.68;6.68;;;19.80;99.90;;;;;;5033220;28;20070;-75
2022/06/10 13:11:07;;;;;;;7.85;6.57;;;19.90;99.90;;;;;;5047309;28;20045;-75